createdAt,value
2023-03-22T00:03:43.623Z,1823.28
2023-03-22T00:07:43.277Z,1823.28
2023-03-22T00:11:43.639Z,1823.28
2023-03-22T00:15:43.744Z,1823.28
2023-03-22T00:19:43.768Z,1823.28
2023-03-22T00:23:43.904Z,1823.28
2023-03-22T00:27:42.982Z,1823.28
2023-03-22T00:31:43.349Z,1823.28
2023-03-22T00:35:42.910Z,1823.28
2023-03-22T00:40:00.663Z,1823.28
2023-03-22T00:43:43.204Z,1823.28
2023-03-22T00:47:43.497Z,1823.28
2023-03-22T00:51:43.281Z,1823.28
2023-03-22T00:55:43.097Z,1823.28
2023-03-22T00:59:43.461Z,1823.28
2023-03-22T01:03:43.442Z,1823.28
2023-03-22T01:07:43.540Z,1823.28
2023-03-22T01:11:43.409Z,1823.28
2023-03-22T01:15:43.521Z,1823.28
2023-03-22T01:19:43.558Z,1823.28
2023-03-22T01:23:43.878Z,1823.28
2023-03-22T01:27:43.738Z,1823.28
2023-03-22T01:31:44.252Z,1823.28
2023-03-22T01:35:43.048Z,1823.28
2023-03-22T01:39:42.765Z,1823.28
2023-03-22T01:43:42.990Z,1823.28
2023-03-22T01:47:43.402Z,1823.28
2023-03-22T01:51:43.886Z,1823.28
2023-03-22T01:55:43.348Z,1823.28
2023-03-22T01:59:43.111Z,1823.28
2023-03-22T02:03:43.023Z,1823.28
2023-03-22T02:07:42.847Z,1823.28
2023-03-22T02:11:43.499Z,1823.28
2023-03-22T02:15:46.199Z,1823.28
2023-03-22T02:19:43.700Z,1823.28
2023-03-22T02:23:43.708Z,1823.28
2023-03-22T02:27:42.874Z,1823.28
2023-03-22T02:31:44.309Z,1823.28
2023-03-22T02:35:43.214Z,1823.28
2023-03-22T02:39:42.984Z,1823.28
2023-03-22T02:43:43.257Z,1823.28
2023-03-22T02:47:44.090Z,1823.28
2023-03-22T02:51:42.761Z,1823.28
2023-03-22T02:55:43.025Z,1823.28
2023-03-22T02:59:43.327Z,1823.28
2023-03-22T03:03:43.466Z,1823.28
2023-03-22T03:07:43.312Z,1823.28
2023-03-22T03:11:43.720Z,1823.28
2023-03-22T03:15:43.715Z,1823.28
2023-03-22T03:19:42.687Z,1823.28
2023-03-22T03:23:43.101Z,1823.28
2023-03-22T03:27:43.185Z,1823.28
2023-03-22T03:31:43.501Z,1823.28
2023-03-22T03:35:43.833Z,1823.28
2023-03-22T03:39:43.691Z,1823.28
2023-03-22T03:43:42.901Z,1823.28
2023-03-22T03:47:43.334Z,1823.28
2023-03-22T03:51:43.171Z,1823.28
2023-03-22T03:55:43.320Z,1823.28
2023-03-22T03:59:43.601Z,1823.28
2023-03-22T04:03:43.799Z,1823.28
2023-03-22T04:07:43.484Z,1823.28
2023-03-22T04:11:43.749Z,1823.28
2023-03-22T04:15:43.493Z,1823.28
2023-03-22T04:19:42.955Z,1823.28
2023-03-22T04:23:43.011Z,1823.28
2023-03-22T04:27:45.870Z,1823.28
2023-03-22T04:31:44.244Z,1823.28
2023-03-22T04:35:42.956Z,1823.28
2023-03-22T04:39:42.920Z,1823.28
2023-03-22T04:43:42.934Z,1823.28
2023-03-22T04:47:43.756Z,1823.28
2023-03-22T04:51:43.026Z,1823.28
2023-03-22T04:55:43.152Z,1823.28
2023-03-22T04:59:43.198Z,1823.28
2023-03-22T05:03:43.514Z,1823.28
2023-03-22T05:07:43.098Z,1823.28
2023-03-22T05:11:43.283Z,1823.28
2023-03-22T05:15:43.717Z,1823.28
2023-03-22T05:19:43.333Z,1823.28
2023-03-22T05:23:43.584Z,1823.28
2023-03-22T05:27:43.469Z,1823.28
2023-03-22T05:31:43.920Z,1823.28
2023-03-22T05:35:44.060Z,1823.28
2023-03-22T05:39:43.624Z,1823.28
2023-03-22T05:43:43.276Z,1823.28
2023-03-22T05:47:44.283Z,1823.28
2023-03-22T05:51:43.744Z,1823.28
2023-03-22T05:55:43.629Z,1823.28
2023-03-22T05:59:44.055Z,1823.28
2023-03-22T06:03:43.326Z,1823.28
2023-03-22T06:07:43.371Z,1823.28
2023-03-22T06:11:43.434Z,1823.28
2023-03-22T06:15:43.894Z,1823.28
2023-03-22T06:19:43.531Z,1823.28
2023-03-22T06:23:43.998Z,1823.28
2023-03-22T06:27:43.357Z,1823.28
2023-03-22T06:31:43.605Z,1823.28
2023-03-22T06:35:43.177Z,1823.28
2023-03-22T06:39:43.088Z,1823.28
2023-03-22T06:43:46.325Z,1823.28
2023-03-22T06:47:43.266Z,1823.28
2023-03-22T06:51:43.483Z,1823.28
2023-03-22T06:55:42.991Z,1823.28
2023-03-22T06:59:43.325Z,1823.28
2023-03-22T07:03:43.158Z,1823.28
2023-03-22T07:07:43.173Z,1823.28
2023-03-22T07:11:43.189Z,1823.28
2023-03-22T07:15:43.200Z,17995.5
2023-03-22T07:19:43.310Z,17995.5
2023-03-22T07:23:43.127Z,7.28
2023-03-22T07:27:43.197Z,2.22
2023-03-22T07:31:43.097Z,2.22
2023-03-22T07:35:43.416Z,0.93
2023-03-22T07:39:43.218Z,197.85
2023-03-22T07:44:04.810Z,144.62
2023-03-22T07:48:02.458Z,0.37
2023-03-22T07:51:43.506Z,0.28
2023-03-22T07:56:00.845Z,0.23
2023-03-22T07:59:43.231Z,82.19
2023-03-22T08:03:44.180Z,82.19
2023-03-22T08:07:43.613Z,82.19
2023-03-22T08:11:43.852Z,82.19
2023-03-22T08:15:56.645Z,82.19
2023-03-22T08:19:43.154Z,82.19
2023-03-22T08:24:00.055Z,82.19
2023-03-22T08:27:43.166Z,82.19
2023-03-22T08:31:43.612Z,82.19
2023-03-22T08:35:43.709Z,82.19
2023-03-22T08:39:43.638Z,82.19
2023-03-22T08:43:42.655Z,82.19
2023-03-22T08:47:43.706Z,82.19
2023-03-22T08:51:43.137Z,82.19
2023-03-22T08:55:43.469Z,82.19
2023-03-22T08:59:43.142Z,82.19
2023-03-22T09:03:44.104Z,1589.61
2023-03-22T09:07:43.649Z,1589.61
2023-03-22T09:11:43.075Z,443.23
2023-03-22T09:15:43.640Z,168.15
2023-03-22T09:19:43.269Z,168.15
2023-03-22T09:23:43.766Z,93.94
2023-03-22T09:27:43.840Z,93.94
2023-03-22T09:31:43.912Z,93.94
2023-03-22T09:35:43.317Z,93.94
2023-03-22T09:39:43.201Z,93.94
2023-03-22T09:43:44.532Z,93.94
2023-03-22T09:47:56.252Z,93.94
2023-03-22T09:51:43.290Z,93.94
2023-03-22T09:55:43.289Z,93.94
2023-03-22T09:59:44.027Z,93.94
2023-03-22T10:03:43.824Z,93.94
2023-03-22T10:07:43.283Z,93.94
2023-03-22T10:11:45.747Z,93.94
2023-03-22T10:15:43.665Z,93.94
2023-03-22T10:19:43.507Z,93.94
2023-03-22T10:23:44.202Z,93.94
2023-03-22T10:27:43.639Z,1206.04
2023-03-22T10:31:44.196Z,1641.32
2023-03-22T10:35:44.091Z,1.25
2023-03-22T10:39:42.609Z,186.35
2023-03-22T10:43:43.180Z,171.69
2023-03-22T10:47:43.296Z,109.34
2023-03-22T10:51:43.688Z,0.23
2023-03-22T10:55:49.686Z,0.22
2023-03-22T10:59:43.628Z,63.39
2023-03-22T11:03:44.326Z,0.16
2023-03-22T11:07:43.396Z,0.15
2023-03-22T11:11:43.943Z,44.27
2023-03-22T11:15:43.794Z,41.23
2023-03-22T11:19:43.805Z,41.23
2023-03-22T11:23:42.754Z,41.23
2023-03-22T11:27:49.257Z,41.23
2023-03-22T11:31:43.663Z,41.23
2023-03-22T11:35:44.032Z,41.23
2023-03-22T11:39:45.362Z,41.23
2023-03-22T11:43:43.625Z,41.23
2023-03-22T11:47:43.897Z,41.23
2023-03-22T11:51:43.385Z,41.23
2023-03-22T11:55:43.809Z,41.23
2023-03-22T11:59:43.693Z,41.23
2023-03-22T12:03:48.343Z,41.23
2023-03-22T12:07:43.192Z,41.23
2023-03-22T12:11:43.097Z,41.23
2023-03-22T12:15:44.105Z,41.23
2023-03-22T12:19:43.841Z,41.23
2023-03-22T12:23:43.970Z,2.94
2023-03-22T12:27:43.720Z,0.95
2023-03-22T12:31:43.364Z,0.8
2023-03-22T12:35:59.291Z,109.34
2023-03-22T12:39:43.240Z,69.33
2023-03-22T12:43:57.004Z,65.34
2023-03-22T12:47:43.644Z,49.09
2023-03-22T12:51:43.892Z,0.12
2023-03-22T12:55:44.251Z,0.12
2023-03-22T12:59:43.755Z,0.12
2023-03-22T13:03:45.448Z,0.12
2023-03-22T13:07:43.856Z,0.12
2023-03-22T13:11:43.111Z,0.12
2023-03-22T13:15:54.153Z,0.12
2023-03-22T13:19:43.644Z,101.46
2023-03-22T13:23:43.771Z,69.33
2023-03-22T13:27:43.083Z,69.33
2023-03-22T13:31:43.158Z,44.27
2023-03-22T13:35:43.630Z,44.27
2023-03-22T13:39:43.200Z,44.27
2023-03-22T13:43:43.847Z,44.27
2023-03-22T13:47:44.416Z,44.27
2023-03-22T13:51:43.971Z,44.27
2023-03-22T13:55:43.449Z,44.27
2023-03-22T13:59:43.299Z,44.27
2023-03-22T14:03:45.126Z,44.27
2023-03-22T14:07:43.541Z,44.27
2023-03-22T14:11:43.379Z,44.27
2023-03-22T14:15:43.124Z,44.27
2023-03-22T14:19:43.454Z,44.27
2023-03-22T14:55:43.577Z,117.59
2023-03-22T14:59:44.299Z,117.59
2023-03-22T15:03:47.004Z,117.59
2023-03-22T15:07:43.616Z,117.59
2023-03-22T15:11:46.031Z,117.59
2023-03-22T15:15:42.749Z,117.59
2023-03-22T15:19:43.098Z,117.59
2023-03-22T15:23:43.012Z,117.59
2023-03-22T15:27:42.815Z,117.59
2023-03-22T15:31:42.939Z,117.59
2023-03-22T15:35:43.400Z,117.59
2023-03-22T15:40:01.858Z,117.59
2023-03-22T15:43:43.220Z,117.59
2023-03-22T15:47:42.870Z,117.59
2023-03-22T15:51:42.605Z,117.59
2023-03-22T15:55:42.982Z,2.97
2023-03-22T15:59:44.052Z,1.03
2023-03-22T16:03:43.767Z,0.89
2023-03-22T16:07:42.497Z,0.36
2023-03-22T16:11:43.046Z,84.47
2023-03-22T16:15:44.598Z,77.76
2023-03-22T16:19:43.126Z,54.2
2023-03-22T16:23:43.289Z,54.2
2023-03-22T16:27:43.158Z,54.2
2023-03-22T16:31:50.994Z,54.2
2023-03-22T16:35:42.825Z,54.2
2023-03-22T16:39:42.695Z,54.2
2023-03-22T16:43:42.662Z,54.2
2023-03-22T16:47:43.060Z,54.2
2023-03-22T16:51:43.036Z,54.2
2023-03-22T16:55:44.725Z,54.2
2023-03-22T17:03:43.057Z,54.2
2023-03-22T17:07:42.982Z,54.2
2023-03-22T17:11:43.229Z,54.2
2023-03-22T17:15:43.147Z,54.2
2023-03-22T17:19:43.790Z,54.2
2023-03-22T17:23:42.689Z,54.2
2023-03-22T17:27:42.562Z,54.2
2023-03-22T17:31:43.308Z,54.2
2023-03-22T17:35:44.053Z,54.2
2023-03-22T17:41:25.206Z,54.2
2023-03-22T17:43:43.329Z,54.2
2023-03-22T17:49:11.734Z,54.2
2023-03-22T17:51:43.647Z,54.2
2023-03-22T18:00:20.763Z,54.2
2023-03-22T18:03:51.673Z,54.2
2023-03-22T18:07:44.226Z,54.2
2023-03-22T18:11:43.983Z,54.2
2023-03-22T18:16:11.266Z,54.2
2023-03-22T18:20:03.974Z,54.2
2023-03-22T18:23:42.633Z,54.2
2023-03-22T18:28:32.752Z,54.2
2023-03-22T18:31:43.100Z,54.2
2023-03-22T18:35:42.727Z,54.2
2023-03-22T18:42:48.204Z,54.2
2023-03-22T18:46:28.495Z,54.2
2023-03-22T18:48:00.365Z,54.2
2023-03-22T18:49:43.302Z,54.2
2023-03-22T18:54:26.259Z,54.2
2023-03-22T18:56:32.304Z,54.2
2023-03-22T18:57:59.759Z,54.2
2023-03-22T18:59:43.172Z,54.2
2023-03-22T19:01:55.369Z,54.2
2023-03-22T19:04:10.111Z,54.2
2023-03-22T19:05:42.989Z,54.2
2023-03-22T19:08:25.784Z,54.2
2023-03-22T19:10:07.441Z,54.2
2023-03-22T19:11:42.553Z,54.2
2023-03-22T19:14:13.663Z,54.2
2023-03-22T19:17:16.426Z,54.2
2023-03-22T19:19:43.634Z,54.2
2023-03-22T19:23:43.551Z,54.2
2023-03-22T19:25:43.001Z,54.2
2023-03-22T19:29:47.943Z,54.2
2023-03-22T19:31:44.047Z,54.2
2023-03-22T19:35:43.305Z,54.2
2023-03-22T19:37:43.824Z,54.2
2023-03-22T19:39:52.342Z,54.2
2023-03-22T19:43:55.704Z,54.2
2023-03-22T19:45:47.591Z,54.2
2023-03-22T19:48:02.471Z,54.2
2023-03-22T19:49:45.978Z,54.2
2023-03-22T19:51:42.989Z,54.2
2023-03-22T19:54:56.415Z,54.2
2023-03-22T19:57:42.428Z,54.2
2023-03-22T20:00:02.972Z,54.2
2023-03-22T20:03:43.066Z,54.2
2023-03-22T20:06:02.152Z,54.2
2023-03-22T20:07:51.874Z,54.2
2023-03-22T20:09:42.901Z,54.2
2023-03-22T20:12:00.650Z,54.2
2023-03-22T20:13:43.715Z,54.2
2023-03-22T20:15:44.750Z,54.2
2023-03-22T20:18:00.207Z,54.2
2023-03-22T20:19:42.712Z,54.2
2023-03-22T20:21:46.592Z,54.2
2023-03-22T20:23:42.960Z,54.2
2023-03-22T20:25:43.854Z,54.2
2023-03-22T20:27:42.789Z,54.2
2023-03-22T20:29:43.356Z,54.2
2023-03-22T20:31:43.079Z,54.2
2023-03-22T20:33:44.384Z,54.2
2023-03-22T20:35:43.224Z,54.2
2023-03-22T20:37:43.640Z,54.2
2023-03-22T20:39:42.994Z,54.2
2023-03-22T20:41:45.587Z,54.2
2023-03-22T20:43:43.217Z,54.2
2023-03-22T20:45:42.942Z,54.2
2023-03-22T20:47:44.660Z,54.2
2023-03-22T20:49:42.469Z,54.2
2023-03-22T20:51:44.042Z,54.2
2023-03-22T20:53:42.922Z,54.2
2023-03-22T20:55:43.238Z,54.2
2023-03-22T20:57:42.772Z,54.2
2023-03-22T20:59:43.279Z,54.2
2023-03-22T21:01:46.945Z,54.2
2023-03-22T21:03:43.257Z,54.2
2023-03-22T21:05:43.914Z,54.2
2023-03-22T21:07:42.987Z,54.2
2023-03-22T21:09:45.227Z,54.2
2023-03-22T21:11:42.962Z,54.2
2023-03-22T21:13:42.681Z,54.2
2023-03-22T21:15:43.558Z,54.2
2023-03-22T21:17:43.528Z,54.2
2023-03-22T21:19:43.139Z,54.2
2023-03-22T21:22:05.447Z,54.2
2023-03-22T21:23:46.945Z,54.2
2023-03-22T21:25:42.923Z,54.2
2023-03-22T21:27:43.308Z,54.2
2023-03-22T21:29:42.846Z,54.2
2023-03-22T21:31:43.372Z,54.2
2023-03-22T21:33:43.279Z,54.2
2023-03-22T21:35:43.023Z,54.2
2023-03-22T21:37:44.282Z,54.2
2023-03-22T21:39:43.110Z,54.2
2023-03-22T21:41:44.303Z,54.2
2023-03-22T21:43:43.473Z,54.2
2023-03-22T21:45:44.050Z,54.2
2023-03-22T21:47:43.247Z,54.2
2023-03-22T21:49:43.172Z,54.2
2023-03-22T21:51:43.598Z,54.2
2023-03-22T21:53:42.755Z,54.2
2023-03-22T21:55:44.369Z,54.2
2023-03-22T21:57:43.638Z,54.2
2023-03-22T21:59:44.948Z,54.2
2023-03-22T22:01:47.271Z,54.2
2023-03-22T22:03:42.597Z,54.2
2023-03-22T22:05:43.489Z,54.2
2023-03-22T22:07:43.009Z,54.2
2023-03-22T22:09:43.617Z,54.2
2023-03-22T22:11:42.936Z,54.2
2023-03-22T22:13:43.803Z,54.2
2023-03-22T22:15:43.533Z,54.2
2023-03-22T22:17:43.721Z,54.2
2023-03-22T22:19:42.985Z,54.2
2023-03-22T22:21:43.950Z,54.2
2023-03-22T22:23:43.311Z,54.2
2023-03-22T22:25:43.374Z,54.2
2023-03-22T22:27:42.959Z,54.2
2023-03-22T22:29:43.335Z,54.2
2023-03-22T22:31:46.873Z,54.2
2023-03-22T22:33:43.427Z,54.2
2023-03-22T22:35:44.369Z,54.2
2023-03-22T22:37:43.946Z,54.2
2023-03-22T22:39:43.701Z,54.2
2023-03-22T22:41:43.462Z,54.2
2023-03-22T22:43:43.919Z,54.2
2023-03-22T22:45:45.847Z,54.2
2023-03-22T22:47:43.460Z,54.2
2023-03-22T22:49:43.008Z,54.2
2023-03-22T22:51:43.567Z,54.2
2023-03-22T22:53:42.839Z,54.2
2023-03-22T22:55:43.879Z,54.2
2023-03-22T22:57:43.446Z,54.2
2023-03-22T22:59:43.858Z,54.2
2023-03-22T23:01:43.044Z,54.2
2023-03-22T23:03:43.477Z,54.2
2023-03-22T23:05:43.206Z,54.2
2023-03-22T23:07:43.947Z,54.2
2023-03-22T23:09:43.067Z,54.2
2023-03-22T23:11:43.869Z,54.2
2023-03-22T23:13:43.392Z,54.2
2023-03-22T23:16:01.053Z,54.2
2023-03-22T23:17:43.126Z,54.2
2023-03-22T23:19:51.538Z,54.2
2023-03-22T23:21:43.514Z,54.2
2023-03-22T23:23:44.328Z,54.2
2023-03-22T23:25:43.110Z,54.2
2023-03-22T23:27:42.461Z,54.2
2023-03-22T23:29:43.776Z,54.2
2023-03-22T23:31:44.076Z,54.2
2023-03-22T23:33:46.014Z,54.2
2023-03-22T23:35:43.702Z,54.2
2023-03-22T23:37:44.064Z,54.2
2023-03-22T23:39:43.106Z,54.2
2023-03-22T23:41:43.493Z,54.2
2023-03-22T23:43:43.152Z,54.2
2023-03-22T23:45:47.000Z,54.2
2023-03-22T23:47:42.693Z,54.2
2023-03-22T23:49:44.120Z,54.2
2023-03-22T23:51:43.794Z,54.2
2023-03-22T23:53:43.154Z,54.2
2023-03-22T23:55:43.745Z,54.2
2023-03-22T23:57:43.410Z,54.2
2023-03-22T23:59:43.777Z,54.2
